Time;durP1;ratioP1;P1;durP2;ratioP2;P2;SDS_P1;SDS_P2;PMS_P1;PMS_P2;Temp;Humidity;BMP_temperature;BMP_pressure;BME280_temperature;BME280_humidity;BME280_pressure;Samples;Min_cycle;Max_cycle;Signal;HPM_P1;HPM_P2
2022/10/08 00:06:40;;;;;;;1.05;0.30;;;12.90;99.90;;;;;;21031364;28;20393;-38
2022/10/08 00:16:41;;;;;;;0.60;0.10;;;12.80;99.90;;;;;;21023685;28;20953;-39
2022/10/08 00:26:42;;;;;;;1.08;0.20;;;12.80;99.90;;;;;;21026523;28;20361;-38
2022/10/08 00:36:43;;;;;;;1.02;0.40;;;12.80;99.90;;;;;;21026480;28;20024;-38
2022/10/08 00:46:48;;;;;;;0.70;0.30;;;12.80;99.90;;;;;;21030152;28;20046;-38
2022/10/08 00:56:52;;;;;;;1.58;0.50;;;12.80;99.90;;;;;;21032169;28;20035;-38
2022/10/08 01:07:37;;;;;;;2.20;0.85;;;12.80;99.90;;;;;;21026171;28;20087;-38
2022/10/08 01:18:09;;;;;;;0.85;0.25;;;12.80;99.90;;;;;;21018419;28;20799;-38
2022/10/08 01:28:17;;;;;;;1.33;0.40;;;12.80;99.90;;;;;;21005557;28;20748;-38
2022/10/08 01:38:21;;;;;;;2.10;0.73;;;12.80;99.90;;;;;;21032651;28;20043;-38
2022/10/08 01:48:34;;;;;;;1.92;1.02;;;12.80;99.90;;;;;;21030561;28;20039;-39
2022/10/08 01:58:53;;;;;;;1.52;0.50;;;12.80;99.90;;;;;;21032541;28;20521;-38
2022/10/08 02:08:55;;;;;;;1.15;0.55;;;12.70;99.90;;;;;;21021191;28;20556;-38
2022/10/08 02:19:24;;;;;;;2.08;1.00;;;12.50;99.90;;;;;;21024511;28;20047;-38
2022/10/08 02:29:36;;;;;;;2.25;0.80;;;12.50;99.90;;;;;;21015578;28;20493;-38
2022/10/08 02:39:42;;;;;;;1.95;0.82;;;12.40;99.90;;;;;;21017187;28;20141;-38
2022/10/08 02:49:53;;;;;;;1.27;0.40;;;12.40;99.90;;;;;;21026026;28;20040;-38
2022/10/08 02:59:55;;;;;;;1.55;0.80;;;12.30;99.90;;;;;;21027867;28;20037;-38
2022/10/08 03:09:57;;;;;;;2.95;0.60;;;12.30;99.90;;;;;;21040359;28;20522;-39
2022/10/08 03:20:01;;;;;;;1.23;0.45;;;12.20;99.90;;;;;;21038351;28;20376;-38
2022/10/08 03:30:03;;;;;;;3.17;1.05;;;12.10;99.90;;;;;;21031920;28;20982;-39
2022/10/08 03:40:05;;;;;;;2.38;0.80;;;12.00;99.90;;;;;;21029752;28;20376;-39
2022/10/08 03:50:07;;;;;;;5.38;1.27;;;12.00;99.90;;;;;;21033426;28;20104;-38
2022/10/08 04:00:08;;;;;;;1.27;0.40;;;11.80;99.90;;;;;;21033935;28;20032;-38
2022/10/08 04:10:09;;;;;;;1.02;0.32;;;11.70;99.90;;;;;;21033512;28;20040;-38
2022/10/08 04:20:10;;;;;;;1.52;0.50;;;11.60;99.90;;;;;;21031595;28;20020;-38
2022/10/08 04:30:12;;;;;;;0.90;0.45;;;11.40;99.90;;;;;;21030575;28;20129;-38
2022/10/08 04:40:13;;;;;;;4.43;0.98;;;11.40;99.90;;;;;;21032745;28;20036;-38
2022/10/08 04:50:14;;;;;;;1.23;0.35;;;11.30;99.90;;;;;;21023962;28;20549;-38
2022/10/08 05:00:15;;;;;;;1.40;0.50;;;11.30;99.90;;;;;;21026306;28;20906;-38
2022/10/08 05:10:16;;;;;;;2.40;0.70;;;11.20;99.90;;;;;;21024726;28;20560;-38
2022/10/08 05:20:17;;;;;;;1.08;0.50;;;11.10;99.90;;;;;;21019413;28;20195;-38
2022/10/08 05:30:18;;;;;;;1.08;0.50;;;11.00;99.90;;;;;;21026880;28;20092;-38
2022/10/08 05:40:19;;;;;;;2.03;0.40;;;10.80;99.90;;;;;;21029428;28;20096;-38
2022/10/08 05:50:20;;;;;;;0.75;0.30;;;10.80;99.90;;;;;;21022720;28;20071;-38
2022/10/08 06:00:21;;;;;;;0.43;0.20;;;10.70;99.90;;;;;;21020242;28;20048;-38
2022/10/08 06:10:23;;;;;;;1.23;0.60;;;10.60;99.90;;;;;;21010504;28;20043;-38
2022/10/08 06:20:24;;;;;;;1.45;0.68;;;10.60;99.90;;;;;;21007277;28;20222;-38
2022/10/08 06:30:25;;;;;;;1.15;0.47;;;10.50;99.90;;;;;;21017620;28;20044;-38
2022/10/08 06:40:44;;;;;;;4.75;2.13;;;10.50;99.90;;;;;;20994054;22;20105;-78
2022/10/08 06:50:45;;;;;;;3.53;1.40;;;10.60;99.90;;;;;;20650015;28;20061;-78
2022/10/08 07:00:46;;;;;;;0.90;0.40;;;10.80;99.90;;;;;;20661714;28;20034;-78
2022/10/08 07:10:48;;;;;;;2.63;1.50;;;10.90;99.90;;;;;;20646926;28;20579;-79
2022/10/08 07:20:56;;;;;;;2.58;0.45;;;11.00;99.90;;;;;;20682799;28;20782;-79
2022/10/08 07:31:03;;;;;;;1.33;0.43;;;11.20;99.90;;;;;;20649756;28;20490;-80
2022/10/08 07:41:05;;;;;;;0.95;0.40;;;11.40;99.90;;;;;;20653473;28;20358;-79
2022/10/08 07:51:13;;;;;;;1.85;0.63;;;11.70;99.90;;;;;;20658073;28;20045;-83
2022/10/08 08:01:20;;;;;;;0.95;0.40;;;12.10;99.90;;;;;;20652479;28;20132;-79
2022/10/08 08:11:23;;;;;;;2.10;0.37;;;12.40;99.90;;;;;;20649706;28;20367;-83
2022/10/08 08:21:30;;;;;;;1.23;0.43;;;12.80;99.90;;;;;;20660941;28;20041;-79
2022/10/08 08:31:34;;;;;;;2.63;0.60;;;13.50;99.90;;;;;;20653385;28;20030;-79
2022/10/08 08:41:43;;;;;;;1.65;0.65;;;13.90;99.90;;;;;;20649168;28;20053;-81
2022/10/08 08:51:45;;;;;;;2.92;1.42;;;14.10;99.90;;;;;;20658403;28;20116;-80
2022/10/08 09:01:47;;;;;;;1.00;0.30;;;14.50;99.90;;;;;;20638111;28;20030;-78
2022/10/08 09:11:48;;;;;;;2.88;1.25;;;14.50;99.90;;;;;;20653714;28;20046;-79
2022/10/08 09:21:49;;;;;;;0.98;0.30;;;14.90;99.90;;;;;;20648916;28;20501;-79
2022/10/08 09:31:50;;;;;;;1.38;0.40;;;14.60;99.90;;;;;;20662885;28;20433;-79
2022/10/08 09:42:05;;;;;;;1.13;0.38;;;14.10;99.90;;;;;;20660532;28;20050;-79
2022/10/08 09:52:27;;;;;;;1.25;0.30;;;14.00;99.90;;;;;;20659592;28;20637;-79
2022/10/08 10:02:36;;;;;;;1.95;0.30;;;14.40;99.90;;;;;;20643360;28;20025;-80
2022/10/08 10:12:41;;;;;;;2.15;0.82;;;15.00;99.90;;;;;;20675635;28;20049;-78
2022/10/08 10:22:57;;;;;;;0.68;0.20;;;14.80;99.90;;;;;;20686673;28;20085;-78
2022/10/08 10:33:24;;;;;;;8.40;1.27;;;14.10;99.90;;;;;;20689078;28;20405;-78
2022/10/08 10:43:51;;;;;;;0.90;0.35;;;14.50;99.90;;;;;;20667947;28;20038;-78
2022/10/08 10:54:04;;;;;;;1.17;0.40;;;14.60;99.90;;;;;;20665177;28;22023;-79
2022/10/08 11:04:33;;;;;;;5.43;0.40;;;14.00;99.90;;;;;;20685458;28;20041;-80
2022/10/08 11:15:07;;;;;;;1.38;0.47;;;13.70;99.90;;;;;;20664611;28;20037;-80
2022/10/08 11:25:39;;;;;;;1.58;0.50;;;14.00;99.90;;;;;;20656944;28;20853;-78
2022/10/08 11:35:48;;;;;;;1.38;0.55;;;14.90;99.90;;;;;;20673697;28;20505;-78
2022/10/08 11:46:21;;;;;;;1.02;0.30;;;16.60;99.90;;;;;;20662905;28;20502;-78
2022/10/08 11:56:22;;;;;;;1.35;0.70;;;16.30;99.90;;;;;;20673530;28;20116;-77
2022/10/08 12:06:27;;;;;;;1.00;0.30;;;15.80;99.90;;;;;;20693364;28;20041;-79
2022/10/08 12:17:03;;;;;;;0.70;0.38;;;15.50;99.90;;;;;;20676034;28;20664;-80
2022/10/08 12:27:16;;;;;;;3.38;0.63;;;16.70;99.90;;;;;;20543579;28;20967;-80
2022/10/08 12:37:38;;;;;;;1.48;0.57;;;17.60;99.90;;;;;;20610524;28;20030;-77
2022/10/08 12:47:47;;;;;;;1.33;0.32;;;18.30;99.90;;;;;;20607759;28;20050;-77
2022/10/08 12:57:49;;;;;;;0.40;0.20;;;18.90;99.90;;;;;;20622361;28;20078;-78
2022/10/08 13:07:50;;;;;;;1.80;0.30;;;19.20;99.90;;;;;;20605472;28;20035;-79
2022/10/08 13:17:52;;;;;;;1.35;0.52;;;19.00;99.90;;;;;;20581161;28;20054;-79
2022/10/08 13:28:20;;;;;;;1.17;0.35;;;19.30;99.90;;;;;;20605545;28;20035;-78
2022/10/08 13:38:30;;;;;;;1.88;0.20;;;19.70;99.90;;;;;;20602786;28;20615;-78
2022/10/08 13:48:31;;;;;;;1.25;0.50;;;19.90;98.60;;;;;;20590790;28;20077;-80
2022/10/08 13:58:32;;;;;;;0.50;0.20;;;19.10;99.90;;;;;;20618931;28;20042;-77
2022/10/08 14:08:34;;;;;;;1.60;0.40;;;19.40;99.90;;;;;;20598287;28;20058;-77
2022/10/08 14:18:35;;;;;;;1.50;0.40;;;19.70;99.90;;;;;;20574500;28;20418;-78
2022/10/08 14:28:37;;;;;;;1.45;0.38;;;19.60;99.50;;;;;;20581851;28;20038;-79
2022/10/08 14:38:38;;;;;;;3.92;0.25;;;18.90;99.90;;;;;;20571930;28;20105;-79
2022/10/08 14:48:39;;;;;;;1.48;0.32;;;18.00;99.90;;;;;;20570170;28;20050;-79
2022/10/08 14:58:41;;;;;;;1.20;0.30;;;17.00;99.90;;;;;;20617811;28;20661;-79
2022/10/08 15:08:42;;;;;;;2.97;0.80;;;16.10;99.90;;;;;;20596460;28;20042;-79
2022/10/08 15:18:43;;;;;;;2.53;0.40;;;15.50;99.90;;;;;;20617430;28;20050;-79
2022/10/08 15:28:45;;;;;;;2.60;0.77;;;15.60;99.90;;;;;;20610596;28;21076;-79
2022/10/08 15:38:47;;;;;;;2.22;0.45;;;15.50;99.90;;;;;;20625143;28;20034;-82
2022/10/08 15:48:54;;;;;;;1.48;0.40;;;15.20;99.90;;;;;;20579984;28;20050;-82
2022/10/08 15:58:57;;;;;;;5.17;1.13;;;15.00;99.90;;;;;;20627870;28;20620;-81
2022/10/08 16:08:58;;;;;;;0.95;0.25;;;14.60;99.90;;;;;;20611982;28;20115;-80
2022/10/08 16:19:02;;;;;;;2.60;0.52;;;14.50;99.90;;;;;;20603398;28;20034;-81
2022/10/08 16:29:06;;;;;;;1.40;0.50;;;14.30;99.90;;;;;;20605861;28;20444;-80
2022/10/08 16:39:09;;;;;;;0.57;0.30;;;14.20;99.90;;;;;;20587910;28;20106;-83
2022/10/08 16:49:22;;;;;;;1.40;0.65;;;13.90;99.90;;;;;;20610710;28;20054;-83
2022/10/08 16:59:25;;;;;;;1.15;0.50;;;13.70;99.90;;;;;;20603401;28;20097;-82
2022/10/08 17:09:27;;;;;;;1.35;0.47;;;13.50;99.90;;;;;;20600010;28;20035;-81
2022/10/08 17:19:28;;;;;;;3.22;1.95;;;13.40;99.90;;;;;;20613032;28;20038;-81
2022/10/08 17:29:29;;;;;;;2.38;1.00;;;13.00;99.90;;;;;;20628187;28;20042;-82
2022/10/08 17:39:31;;;;;;;3.60;1.35;;;12.70;99.90;;;;;;20619471;28;20046;-81
2022/10/08 17:49:32;;;;;;;2.60;1.10;;;12.40;99.90;;;;;;20616418;28;20038;-81
2022/10/08 17:59:33;;;;;;;1.38;0.65;;;12.40;99.90;;;;;;20605513;28;20936;-82
2022/10/08 18:09:34;;;;;;;3.15;1.38;;;12.50;99.90;;;;;;20614441;28;20038;-81
2022/10/08 18:19:35;;;;;;;2.88;1.10;;;12.40;99.90;;;;;;20581450;28;20053;-81
2022/10/08 18:29:36;;;;;;;1.52;0.65;;;12.20;99.90;;;;;;20598201;28;20042;-81
2022/10/08 18:39:37;;;;;;;5.78;2.17;;;11.90;99.90;;;;;;20631269;28;20038;-81
2022/10/08 18:49:39;;;;;;;2.10;1.00;;;11.80;99.90;;;;;;20604742;28;20041;-81
2022/10/08 18:59:40;;;;;;;5.38;2.08;;;11.60;99.90;;;;;;20607318;28;20046;-81
2022/10/08 19:09:41;;;;;;;2.78;1.15;;;11.50;99.90;;;;;;20634337;28;20053;-81
2022/10/08 19:19:42;;;;;;;3.42;0.73;;;11.30;99.90;;;;;;20615933;28;20043;-81
2022/10/08 19:29:43;;;;;;;1.55;0.60;;;11.20;99.90;;;;;;20607469;28;20045;-80
2022/10/08 19:39:46;;;;;;;1.58;0.80;;;11.00;99.90;;;;;;20631144;28;20045;-80
2022/10/08 19:49:47;;;;;;;1.77;0.90;;;10.80;99.90;;;;;;20618621;28;20030;-80
2022/10/08 19:59:48;;;;;;;3.85;0.47;;;10.70;99.90;;;;;;20603810;28;20046;-80
2022/10/08 20:09:49;;;;;;;2.95;1.00;;;10.60;99.90;;;;;;20597890;28;20049;-80
2022/10/08 20:19:50;;;;;;;1.38;0.68;;;10.60;99.90;;;;;;20608509;28;20030;-80
2022/10/08 20:29:51;;;;;;;1.67;0.68;;;10.50;99.90;;;;;;20592842;28;20498;-80
2022/10/08 20:39:52;;;;;;;1.25;0.60;;;10.30;99.90;;;;;;20613555;28;20031;-80
2022/10/08 20:49:53;;;;;;;2.10;1.05;;;10.20;99.90;;;;;;20593708;28;20042;-80
2022/10/08 20:59:55;;;;;;;1.75;0.95;;;10.00;99.90;;;;;;20676572;28;20048;-79
2022/10/08 21:09:56;;;;;;;2.55;1.23;;;9.90;99.90;;;;;;20664851;28;21032;-80
2022/10/08 21:19:57;;;;;;;4.30;1.92;;;9.80;99.90;;;;;;20687205;28;20069;-79
2022/10/08 21:29:58;;;;;;;1.75;0.90;;;9.80;99.90;;;;;;20659289;28;20042;-80
2022/10/08 21:39:59;;;;;;;3.35;1.48;;;9.90;99.90;;;;;;20682603;28;20450;-80
2022/10/08 21:50:00;;;;;;;5.10;1.48;;;9.80;99.90;;;;;;20679456;28;20065;-80
2022/10/08 22:00:10;;;;;;;3.47;1.42;;;9.80;99.90;;;;;;20684486;28;20041;-80
2022/10/08 22:10:11;;;;;;;6.68;2.90;;;9.70;99.90;;;;;;20676147;28;20206;-80
2022/10/08 22:20:12;;;;;;;3.17;0.98;;;9.60;99.90;;;;;;20697023;28;20034;-80
2022/10/08 22:30:13;;;;;;;2.50;1.35;;;9.50;99.90;;;;;;20696395;28;20046;-80
2022/10/08 22:40:14;;;;;;;3.85;1.65;;;9.50;99.90;;;;;;20694563;28;20046;-80
2022/10/08 22:50:18;;;;;;;3.35;1.65;;;9.40;99.90;;;;;;20696557;28;20049;-80
2022/10/08 23:00:19;;;;;;;3.13;1.30;;;9.40;99.90;;;;;;20702204;28;20073;-80
2022/10/08 23:10:21;;;;;;;2.50;1.20;;;9.40;99.90;;;;;;20673524;28;20038;-79
2022/10/08 23:20:22;;;;;;;2.47;1.02;;;9.30;99.90;;;;;;20671876;28;20038;-80
2022/10/08 23:30:23;;;;;;;1.45;1.02;;;9.30;99.90;;;;;;20688681;28;20042;-80
2022/10/08 23:40:24;;;;;;;4.03;1.52;;;9.20;99.90;;;;;;20687210;28;20132;-80
2022/10/08 23:50:25;;;;;;;4.63;1.45;;;9.10;99.90;;;;;;20675846;28;20521;-79
